VOZ weather

Voronezh International Airport
Voronezh, Voronezh Oblast, Russia

Public forecast

Using degrees Celsius for public forecast. Weather courtesy of forecast.io.

Current aviation weather report (METAR) for Voronezh International Airport

Retrieved 2020/07/14 09:30 UTC (10 minutes ago):

UUOO 140930Z 04002MPS 9999 -SHRA BKN050CB 21/19 Q1000 R30/190060 NOSIG RMK QFE737

Aviation forecast (TAF) for Voronezh International Airport

Forecast is more than 12 hours old.

Retrieved 2015/08/10 18:12 UTC (5 years ago):

TAF TAF UUOO 101700Z 1018/1106 33003MPS CAVOK